createdAt,value
2023-01-17T00:00:48.818Z,99180.09
2023-01-17T00:03:21.419Z,99184.23
2023-01-17T00:06:11.653Z,99178.03
2023-01-17T00:09:01.940Z,99180.33
2023-01-17T00:11:34.916Z,99172.66
2023-01-17T00:14:07.596Z,99181.42
2023-01-17T00:16:40.653Z,99182.52
2023-01-17T00:19:31.009Z,99188.28
2023-01-17T00:22:24.482Z,99177.03
2023-01-17T00:25:14.965Z,99168.50
2023-01-17T00:27:46.453Z,99171.06
2023-01-17T00:30:18.187Z,99165.57
2023-01-17T00:32:49.808Z,99167.88
2023-01-17T00:35:22.936Z,99168.26
2023-01-17T00:38:05.868Z,99163.13
2023-01-17T00:41:00.606Z,99165.81
2023-01-17T00:43:51.261Z,99164.59
2023-01-17T00:46:41.495Z,99160.31
2023-01-17T00:49:32.113Z,99152.73
2023-01-17T00:52:22.268Z,99141.87
2023-01-17T00:55:12.618Z,99152.61
2023-01-17T00:58:03.896Z,99147.98
2023-01-17T01:00:54.596Z,99152.76
2023-01-17T01:03:45.282Z,99149.08
2023-01-17T01:06:36.674Z,99140.90
2023-01-17T01:09:26.923Z,99141.48
2023-01-17T01:12:18.911Z,99140.02
2023-01-17T01:15:09.467Z,99143.09
2023-01-17T01:18:00.045Z,99139.55
2023-01-17T01:20:50.338Z,99135.16
2023-01-17T01:23:41.059Z,99136.25
2023-01-17T01:26:31.374Z,99122.44
2023-01-17T01:29:21.233Z,99128.80
2023-01-17T01:32:11.818Z,99110.98
2023-01-17T01:34:44.361Z,99125.02
2023-01-17T01:37:16.770Z,99111.11
2023-01-17T01:39:49.357Z,99108.91
2023-01-17T01:42:21.949Z,99113.67
2023-01-17T01:44:55.025Z,99112.80
2023-01-17T01:47:40.882Z,99120.00
2023-01-17T01:50:13.957Z,99112.33
2023-01-17T01:52:48.680Z,99114.89
2023-01-17T01:55:29.480Z,99102.41
2023-01-17T01:58:06.007Z,99101.94
2023-01-17T02:00:41.119Z,99097.16
2023-01-17T02:03:18.480Z,99084.61
2023-01-17T02:05:50.946Z,99085.95
2023-01-17T02:08:24.657Z,99088.98
2023-01-17T02:10:57.232Z,99081.79
2023-01-17T02:13:31.572Z,99084.48
2023-01-17T02:16:37.566Z,99080.80
2023-01-17T02:19:32.944Z,99089.84
2023-01-17T02:22:22.155Z,99084.13
2023-01-17T02:25:14.769Z,99079.11
2023-01-17T02:28:16.561Z,99083.02
2023-01-17T02:30:53.842Z,99079.72
2023-01-17T02:33:42.142Z,99082.66
2023-01-17T02:36:34.062Z,99060.55
2023-01-17T02:39:21.764Z,99053.48
2023-01-17T02:41:58.168Z,99052.04
2023-01-17T02:44:30.569Z,99034.20
2023-01-17T02:47:02.931Z,99052.64
2023-01-17T02:49:35.463Z,99051.30
2023-01-17T02:52:42.515Z,99039.69
2023-01-17T02:55:41.078Z,99031.28
2023-01-17T02:58:43.502Z,99033.10
2023-01-17T03:01:41.826Z,99024.81
2023-01-17T03:04:24.164Z,99028.37
2023-01-17T03:07:02.036Z,99031.05
2023-01-17T03:09:34.591Z,99014.56
2023-01-17T03:12:08.111Z,99013.47
2023-01-17T03:14:42.826Z,99015.64
2023-01-17T03:17:15.423Z,99013.95
2023-01-17T03:19:47.750Z,99012.96
2023-01-17T03:22:20.222Z,99015.64
2023-01-17T03:24:52.903Z,99020.41
2023-01-17T03:27:25.296Z,98999.53
2023-01-17T03:29:57.706Z,99017.37
2023-01-17T03:32:31.153Z,99010.89
2023-01-17T03:35:04.711Z,99014.44
2023-01-17T03:37:37.472Z,99016.73
2023-01-17T03:40:11.105Z,99013.83
2023-01-17T03:42:45.461Z,99024.69
2023-01-17T03:45:18.170Z,99003.95
2023-01-17T03:47:50.711Z,99002.09
2023-01-17T03:50:23.141Z,99002.95
2023-01-17T03:52:56.089Z,99006.64
2023-01-17T03:55:28.691Z,98988.92
2023-01-17T03:58:01.666Z,99000.88
2023-01-17T04:00:34.490Z,98989.18
2023-01-17T04:03:06.850Z,98992.57
2023-01-17T04:05:39.510Z,98988.06
2023-01-17T04:08:12.058Z,98991.73
2023-01-17T04:10:44.909Z,98982.81
2023-01-17T04:13:17.478Z,98985.50
2023-01-17T04:15:50.807Z,98988.92
2023-01-17T04:18:24.413Z,98984.03
2023-01-17T04:20:57.322Z,98986.36
2023-01-17T04:23:30.470Z,99026.88
2023-01-17T04:26:03.816Z,98988.29
2023-01-17T04:28:36.819Z,98985.95
2023-01-17T04:31:10.282Z,99000.13
2023-01-17T04:33:43.193Z,98981.55
2023-01-17T04:36:15.633Z,98987.27
2023-01-17T04:38:48.091Z,98980.78
2023-01-17T04:41:20.765Z,98981.13
2023-01-17T04:43:53.602Z,98994.09
2023-01-17T04:46:26.011Z,98979.31
2023-01-17T04:48:59.371Z,98986.50
2023-01-17T04:51:31.979Z,99001.80
2023-01-17T04:54:04.957Z,98981.26
2023-01-17T04:56:37.391Z,98980.30
2023-01-17T04:59:09.946Z,98996.03
2023-01-17T05:01:42.929Z,99012.16
2023-01-17T05:04:15.372Z,98986.03
2023-01-17T05:06:48.046Z,98998.59
2023-01-17T05:09:20.591Z,98978.09
2023-01-17T05:11:53.735Z,98973.59
2023-01-17T05:14:26.546Z,98974.55
2023-01-17T05:16:59.353Z,98986.03
2023-01-17T05:19:32.536Z,98977.36
2023-01-17T05:22:06.573Z,98968.31
2023-01-17T05:24:39.095Z,98974.03
2023-01-17T05:27:12.273Z,98978.80
2023-01-17T05:29:44.618Z,98977.55
2023-01-17T05:32:17.019Z,98964.47
2023-01-17T05:34:51.209Z,98970.22
2023-01-17T05:37:24.601Z,98971.56
2023-01-17T05:39:56.939Z,98966.41
2023-01-17T05:42:30.122Z,98965.94
2023-01-17T05:45:03.095Z,98966.38
2023-01-17T05:47:36.050Z,98964.30
2023-01-17T05:50:12.155Z,98961.09
2023-01-17T05:52:56.948Z,98962.82
2023-01-17T05:55:29.777Z,98968.06
2023-01-17T05:58:02.474Z,98966.85
2023-01-17T06:00:35.736Z,98964.64
2023-01-17T06:03:08.199Z,98979.91
2023-01-17T06:05:40.776Z,98973.83
2023-01-17T06:08:13.499Z,98977.34
2023-01-17T06:10:46.710Z,98976.52
2023-01-17T06:13:20.936Z,98978.86
2023-01-17T06:15:56.186Z,98983.72
2023-01-17T06:18:29.223Z,98985.16
2023-01-17T06:21:02.045Z,98991.05
2023-01-17T06:23:34.416Z,99002.49
2023-01-17T06:26:08.543Z,99004.22
2023-01-17T06:28:40.957Z,99022.52
2023-01-17T06:31:13.571Z,99011.55
2023-01-17T06:33:46.264Z,99001.15
2023-01-17T06:36:18.623Z,98990.40
2023-01-17T06:38:54.125Z,98986.37
2023-01-17T06:41:26.865Z,98994.43
2023-01-17T06:43:59.381Z,99012.89
2023-01-17T06:46:31.741Z,98990.05
2023-01-17T06:49:04.336Z,98998.33
2023-01-17T06:51:36.907Z,98988.80
2023-01-17T06:54:10.305Z,99008.34
2023-01-17T06:56:42.729Z,99005.17
2023-01-17T06:59:15.501Z,99004.41
2023-01-17T07:01:48.848Z,98999.77
2023-01-17T07:04:21.992Z,99001.81
2023-01-17T07:06:54.932Z,99002.32
2023-01-17T07:09:28.186Z,98989.23
2023-01-17T07:12:02.127Z,99006.58
2023-01-17T07:14:34.977Z,98991.92
2023-01-17T07:17:07.589Z,99001.20
2023-01-17T07:19:40.488Z,99000.85
2023-01-17T07:22:12.927Z,98994.61
2023-01-17T07:24:45.596Z,99019.80
2023-01-17T07:27:18.113Z,98989.02
2023-01-17T07:29:51.804Z,98998.64
2023-01-17T07:32:29.715Z,98980.30
2023-01-17T07:35:02.332Z,98987.76
2023-01-17T07:37:35.371Z,98978.83
2023-01-17T07:40:09.475Z,98988.75
2023-01-17T07:42:42.122Z,98969.55
2023-01-17T07:45:15.544Z,98973.97
2023-01-17T07:47:49.583Z,98983.59
2023-01-17T07:50:21.966Z,98977.73
2023-01-17T07:52:56.547Z,98982.98
2023-01-17T07:55:28.751Z,98974.19
2023-01-17T07:58:02.916Z,98986.63
2023-01-17T08:00:34.775Z,98984.94
2023-01-17T08:03:07.035Z,98986.02
2023-01-17T08:05:40.414Z,98975.40
2023-01-17T08:08:13.065Z,98976.10
2023-01-17T08:10:46.453Z,98976.48
2023-01-17T08:13:19.621Z,98971.80
2023-01-17T08:15:54.210Z,98972.80
2023-01-17T08:18:28.075Z,98973.80
2023-01-17T08:21:00.377Z,98978.05
2023-01-17T08:23:33.019Z,98966.30
2023-01-17T08:26:05.507Z,98960.30
2023-01-17T08:28:38.126Z,98994.05
2023-01-17T08:31:11.296Z,98959.83
2023-01-17T08:33:44.199Z,98966.89
2023-01-17T08:36:16.671Z,98952.59
2023-01-17T08:38:50.679Z,98946.38
2023-01-17T08:41:23.052Z,98944.52
2023-01-17T08:43:55.372Z,98942.70
2023-01-17T08:46:27.980Z,98942.34
2023-01-17T08:49:03.025Z,98936.33
2023-01-17T08:51:36.096Z,98937.67
2023-01-17T08:54:09.899Z,98933.37
2023-01-17T08:56:43.133Z,98933.72
2023-01-17T08:59:15.601Z,98937.62
2023-01-17T09:01:48.736Z,98926.73
2023-01-17T09:04:21.455Z,98924.91
2023-01-17T09:06:53.963Z,98924.42
2023-01-17T09:09:26.558Z,98919.39
2023-01-17T09:11:58.895Z,98915.58
2023-01-17T09:14:31.232Z,98914.61
2023-01-17T09:17:05.931Z,98897.61
2023-01-17T09:19:41.066Z,98896.62
2023-01-17T09:22:13.867Z,98890.97
2023-01-17T09:24:46.250Z,98896.08
2023-01-17T09:27:18.882Z,98889.70
2023-01-17T09:29:51.381Z,98886.05
2023-01-17T09:32:23.876Z,98876.12
2023-01-17T09:34:58.012Z,98864.26
2023-01-17T09:37:30.381Z,98874.37
2023-01-17T09:40:02.848Z,98861.64
2023-01-17T09:42:39.992Z,98858.44
2023-01-17T09:45:18.724Z,98860.99
2023-01-17T09:47:52.758Z,98858.06
2023-01-17T09:50:44.999Z,98860.75
2023-01-17T09:53:21.626Z,98853.06
2023-01-17T09:56:01.953Z,98856.45
2023-01-17T09:59:03.140Z,98850.10
2023-01-17T10:01:48.709Z,98844.27
2023-01-17T10:04:50.656Z,98842.31
2023-01-17T10:07:37.085Z,98844.73
2023-01-17T10:10:35.246Z,98843.24
2023-01-17T13:25:20.415Z,98757.25
2023-01-17T13:28:18.810Z,98743.73
2023-01-17T13:31:02.897Z,98746.42
2023-01-17T13:33:58.682Z,98742.24
2023-01-17T13:36:44.944Z,98732.82
2023-01-17T13:39:51.806Z,98730.13
2023-01-17T13:42:49.981Z,98725.22
2023-01-17T13:45:28.804Z,98725.56
2023-01-17T13:48:21.319Z,98725.71
2023-01-17T13:51:01.062Z,98721.53
2023-01-17T13:53:41.321Z,98728.98
2023-01-17T13:56:21.151Z,98722.73
2023-01-17T13:59:01.860Z,98731.19
2023-01-17T14:01:48.191Z,98727.97
2023-01-17T14:04:21.018Z,98723.30
2023-01-17T14:06:57.923Z,98731.73
2023-01-17T14:09:43.055Z,98714.31
2023-01-17T14:12:23.743Z,98728.17
2023-01-17T14:14:57.173Z,98706.57
2023-01-17T14:17:38.501Z,98700.33
2023-01-17T14:20:17.071Z,98700.67
2023-01-17T14:23:02.019Z,98697.63
2023-01-17T14:25:40.243Z,98706.28
2023-01-17T14:28:32.848Z,98693.16
2023-01-17T14:31:09.623Z,98718.94
2023-01-17T14:33:42.817Z,98714.41
2023-01-17T14:36:25.361Z,98710.72
2023-01-17T14:38:57.874Z,98721.15
2023-01-17T14:41:30.876Z,98726.20
2023-01-17T14:44:03.730Z,98724.47
2023-01-17T14:46:36.730Z,98719.75
2023-01-17T14:52:06.642Z,98706.34
2023-01-17T14:54:40.993Z,98702.67
2023-01-17T14:57:28.917Z,98709.06
2023-01-17T15:00:21.388Z,98712.39
2023-01-17T15:02:54.832Z,98709.27
2023-01-17T15:05:28.990Z,98701.81
2023-01-17T15:08:01.431Z,98703.06
2023-01-17T15:10:34.270Z,98698.59
2023-01-17T15:13:09.808Z,98710.85
2023-01-17T15:15:43.141Z,98711.14
2023-01-17T15:18:22.578Z,98717.02
2023-01-17T15:21:03.709Z,98716.39
2023-01-17T15:23:42.906Z,98726.63
2023-01-17T15:26:17.642Z,98725.08
2023-01-17T15:28:49.915Z,98723.22
2023-01-17T15:31:46.973Z,98717.88
2023-01-17T15:34:30.177Z,98712.82
2023-01-17T15:37:08.179Z,98719.46
2023-01-17T15:39:41.717Z,98726.05
2023-01-17T15:42:26.955Z,98717.83
2023-01-17T15:45:03.177Z,98712.48
2023-01-17T15:47:38.832Z,98709.30
2023-01-17T15:50:26.817Z,98698.34
2023-01-17T15:53:02.344Z,98707.77
2023-01-17T15:55:39.993Z,98714.17
2023-01-17T15:58:27.946Z,98719.41
2023-01-17T16:01:00.583Z,98713.39
2023-01-17T16:03:33.420Z,98722.67
2023-01-17T16:06:08.391Z,98720.47
2023-01-17T16:08:40.954Z,98721.33
2023-01-17T16:11:13.558Z,98718.97
2023-01-17T16:13:47.478Z,98722.38
2023-01-17T16:16:24.168Z,98720.03
2023-01-17T16:19:02.857Z,98720.03
2023-01-17T16:21:35.343Z,98725.91
2023-01-17T16:24:10.679Z,98735.19
2023-01-17T16:26:43.675Z,98735.19
2023-01-17T16:29:16.499Z,98734.56
2023-01-17T16:31:49.238Z,98743.99
2023-01-17T16:34:23.190Z,98735.76
2023-01-17T16:36:56.118Z,98735.95
2023-01-17T16:39:29.877Z,98734.95
2023-01-17T16:42:05.526Z,98731.13
2023-01-17T16:44:38.613Z,98733.16
2023-01-17T16:47:13.650Z,98734.65
2023-01-17T16:49:45.987Z,98726.42
2023-01-17T16:52:18.411Z,98730.46
2023-01-17T16:54:50.870Z,98743.11
2023-01-17T16:57:23.273Z,98754.09
2023-01-17T16:59:55.774Z,98762.03
2023-01-17T17:02:28.140Z,98758.03
2023-01-17T17:05:00.610Z,98765.83
2023-01-17T17:07:35.119Z,98769.72
2023-01-17T17:10:08.146Z,98775.31
2023-01-17T17:12:40.649Z,98778.20
2023-01-17T17:15:13.496Z,98774.72
2023-01-17T17:17:46.340Z,98765.63
2023-01-17T17:20:18.711Z,98777.27
2023-01-17T17:22:52.163Z,98785.36
2023-01-17T17:25:24.715Z,98787.91
2023-01-17T17:27:57.103Z,98788.81
2023-01-17T17:30:29.436Z,98792.76
2023-01-17T17:33:03.712Z,98800.94
2023-01-17T17:35:36.494Z,98791.28
2023-01-17T17:38:09.052Z,98799.07
2023-01-17T17:40:41.486Z,98793.01
2023-01-17T17:43:14.317Z,98799.11
2023-01-17T17:45:46.865Z,98802.86
2023-01-17T17:48:20.569Z,98807.20
2023-01-17T17:50:59.918Z,98801.09
2023-01-17T17:53:32.384Z,98803.31
2023-01-17T17:56:07.210Z,98802.26
2023-01-17T17:58:39.518Z,98815.03
2023-01-17T18:01:11.777Z,98809.26
2023-01-17T18:03:44.184Z,98808.02
2023-01-17T18:06:17.646Z,98804.27
2023-01-17T18:08:51.709Z,98806.05
2023-01-17T18:11:27.007Z,98802.11
2023-01-17T18:14:01.583Z,98813.19
2023-01-17T18:16:40.570Z,98824.12
2023-01-17T18:19:22.730Z,98825.96
2023-01-17T18:21:55.674Z,98822.25
2023-01-17T18:24:29.028Z,98823.98
2023-01-17T18:27:01.664Z,98819.07
2023-01-17T18:29:34.713Z,98821.63
2023-01-17T18:32:07.253Z,98822.34
2023-01-17T18:34:41.373Z,98824.17
2023-01-17T18:37:13.785Z,98827.21
2023-01-17T18:39:46.395Z,98844.06
2023-01-17T18:42:18.883Z,98850.80
2023-01-17T18:44:51.481Z,98850.51
2023-01-17T18:47:24.041Z,98855.23
2023-01-17T18:49:56.390Z,98843.81
2023-01-17T18:52:28.963Z,98848.77
2023-01-17T18:55:01.379Z,98844.05
2023-01-17T18:57:34.041Z,98847.76
2023-01-17T19:00:07.758Z,98853.94
2023-01-17T19:02:40.573Z,98868.77
2023-01-17T19:05:14.863Z,98867.65
2023-01-17T19:07:47.378Z,98881.67
2023-01-17T19:10:20.554Z,98872.95
2023-01-17T19:12:53.032Z,98879.94
2023-01-17T19:15:25.639Z,98870.91
2023-01-17T19:17:58.353Z,98879.05
2023-01-17T19:20:31.337Z,98880.11
2023-01-17T19:23:03.805Z,98880.74
2023-01-17T19:25:37.849Z,98888.16
2023-01-17T19:28:11.115Z,98898.95
2023-01-17T19:30:43.429Z,98908.73
2023-01-17T19:33:15.988Z,98910.84
2023-01-17T19:35:48.374Z,98907.85
2023-01-17T19:38:21.145Z,98911.46
2023-01-17T19:40:53.584Z,98903.22
2023-01-17T19:43:26.000Z,98904.56
2023-01-17T19:46:01.546Z,98913.00
2023-01-17T19:48:34.017Z,98910.79
2023-01-17T19:51:09.766Z,98915.70
2023-01-17T19:53:42.935Z,98914.35
2023-01-17T19:56:20.750Z,98914.20
2023-01-17T19:58:53.304Z,98911.70
2023-01-17T20:01:28.833Z,98915.75
2023-01-17T20:04:02.515Z,98903.60
2023-01-17T20:06:36.910Z,98897.91
2023-01-17T20:09:09.345Z,98897.05
2023-01-17T20:11:43.563Z,98898.39
2023-01-17T20:14:16.766Z,98900.75
2023-01-17T20:16:49.819Z,98908.17
2023-01-17T20:19:22.755Z,98904.42
2023-01-17T20:21:56.031Z,98905.69
2023-01-17T20:24:28.703Z,98903.14
2023-01-17T20:27:02.101Z,98905.16
2023-01-17T20:29:36.028Z,98911.91
2023-01-17T20:32:08.573Z,98920.78
2023-01-17T20:34:41.414Z,98925.34
2023-01-17T20:37:13.970Z,98919.43
2023-01-17T20:39:48.042Z,98927.52
2023-01-17T20:42:21.691Z,98923.63
2023-01-17T20:44:54.312Z,98924.30
2023-01-17T20:47:28.273Z,98929.16
2023-01-17T20:50:03.265Z,98926.84
2023-01-17T20:52:35.984Z,98925.12
2023-01-17T20:55:09.334Z,98926.91
2023-01-17T20:57:42.695Z,98924.02
2023-01-17T21:00:17.169Z,98928.50
2023-01-17T21:02:50.182Z,98931.00
2023-01-17T21:05:24.743Z,98939.88
2023-01-17T21:07:57.842Z,98945.93
2023-01-17T21:10:30.580Z,98945.27
2023-01-17T21:13:02.908Z,98951.58
2023-01-17T21:15:35.239Z,98957.55
2023-01-17T21:18:07.821Z,98960.81
2023-01-17T21:20:40.280Z,98960.30
2023-01-17T21:23:14.533Z,98948.00
2023-01-17T21:26:15.527Z,98950.56
2023-01-17T21:28:49.251Z,98944.53
2023-01-17T21:31:27.376Z,98949.63
2023-01-17T21:34:05.085Z,98944.29
2023-01-17T21:36:41.950Z,98944.97
2023-01-17T21:39:19.925Z,98933.34
2023-01-17T21:41:52.716Z,98927.37
2023-01-17T21:44:26.036Z,98932.16
2023-01-17T21:47:00.034Z,98934.95
2023-01-17T21:49:33.217Z,98933.55
2023-01-17T21:52:06.274Z,98926.04
2023-01-17T21:54:57.369Z,98922.95
2023-01-17T21:57:48.774Z,98918.91
2023-01-17T22:00:21.267Z,98925.56
2023-01-17T22:02:53.629Z,98930.95
2023-01-17T22:05:26.174Z,98933.65
2023-01-17T22:08:14.894Z,98925.36
2023-01-17T22:10:47.791Z,98925.36
2023-01-17T22:13:20.652Z,98929.55
2023-01-17T22:16:00.744Z,98935.09
2023-01-17T22:18:36.232Z,98931.91
2023-01-17T22:21:13.871Z,98928.86
2023-01-17T22:23:52.311Z,98932.34
2023-01-17T22:26:28.290Z,98923.67
2023-01-17T22:29:04.451Z,98926.69
2023-01-17T22:31:37.316Z,98936.03
2023-01-17T22:34:09.810Z,98927.89
2023-01-17T22:36:42.397Z,98932.94
2023-01-17T22:39:14.931Z,98935.72
2023-01-17T22:41:47.291Z,98929.03
2023-01-17T22:44:19.776Z,98930.26
2023-01-17T22:46:52.120Z,98928.75
2023-01-17T22:49:24.661Z,98933.39
2023-01-17T22:51:57.129Z,98932.23
2023-01-17T22:54:30.436Z,98939.56
2023-01-17T22:57:03.045Z,98936.22
2023-01-17T22:59:35.853Z,98925.38
2023-01-17T23:02:08.778Z,98929.84
2023-01-17T23:04:41.060Z,98929.91
2023-01-17T23:07:13.451Z,98933.22
2023-01-17T23:09:46.638Z,98932.50
2023-01-17T23:12:19.014Z,98931.16
2023-01-17T23:15:09.679Z,98929.80
2023-01-17T23:18:01.082Z,98927.70
2023-01-17T23:20:33.483Z,98935.64
2023-01-17T23:23:06.218Z,98944.27
2023-01-17T23:25:39.223Z,98947.55
2023-01-17T23:28:11.757Z,98944.78
2023-01-17T23:30:44.503Z,98949.27
2023-01-17T23:33:17.817Z,98943.46
2023-01-17T23:35:50.307Z,98940.97
2023-01-17T23:38:34.251Z,98948.50
2023-01-17T23:41:26.993Z,98947.22
2023-01-17T23:43:59.994Z,98955.22
2023-01-17T23:46:33.181Z,98963.17
2023-01-17T23:49:06.180Z,98970.63
2023-01-17T23:51:38.589Z,98961.54
2023-01-17T23:54:12.168Z,98963.81
2023-01-17T23:56:44.906Z,98966.42
2023-01-17T23:59:17.423Z,98970.81
